Time;durP1;ratioP1;P1;durP2;ratioP2;P2;SDS_P1;SDS_P2;PMS_P1;PMS_P2;Temp;Humidity;BMP_temperature;BMP_pressure;BME280_temperature;BME280_humidity;BME280_pressure;Samples;Min_cycle;Max_cycle;Signal;HPM_P1;HPM_P2
2022/01/13 00:00:01;;;;;;;9.75;5.40;;;-5.50;99.90;;;;;;4364438;32;20101;-66
2022/01/13 00:02:32;;;;;;;7.47;5.22;;;-5.40;99.90;;;;;;4364399;32;20066;-66
2022/01/13 00:04:59;;;;;;;9.13;5.00;;;-5.50;99.90;;;;;;4365070;32;20163;-66
2022/01/13 00:07:26;;;;;;;7.32;4.68;;;-5.60;99.90;;;;;;4364207;32;20163;-66
2022/01/13 00:09:52;;;;;;;7.90;4.90;;;-5.50;99.90;;;;;;4365231;32;20082;-66
2022/01/13 00:12:20;;;;;;;7.97;5.43;;;-5.50;99.90;;;;;;4382353;32;20109;-67
2022/01/13 00:15:50;;;;;;;9.00;5.00;;;-5.40;99.90;;;;;;4376581;32;20181;-66
2022/01/13 00:23:38;;;;;;;7.57;4.60;;;-5.30;99.90;;;;;;4376285;32;20070;-66
2022/01/13 00:25:36;;;;;;;10.27;4.87;;;-5.40;99.90;;;;;;4376668;32;20072;-66
2022/01/13 00:28:12;;;;;;;7.82;4.28;;;-5.20;99.90;;;;;;4363870;32;20128;-66
2022/01/13 00:30:38;;;;;;;9.05;5.15;;;-5.20;99.90;;;;;;4376515;32;20078;-64
2022/01/13 00:33:05;;;;;;;9.02;4.87;;;-5.30;99.90;;;;;;4376324;32;20101;-66
2022/01/13 00:35:31;;;;;;;10.35;4.90;;;-5.30;99.90;;;;;;4388834;32;20085;-66
2022/01/13 00:37:58;;;;;;;7.07;4.20;;;-5.30;99.90;;;;;;4377841;32;20175;-65
2022/01/13 00:40:24;;;;;;;6.90;4.50;;;-5.10;99.90;;;;;;4377826;32;20524;-65
2022/01/13 00:42:50;;;;;;;7.62;4.50;;;-5.20;99.90;;;;;;4376422;32;20191;-66
2022/01/13 00:45:17;;;;;;;6.97;4.78;;;-5.20;99.90;;;;;;4389447;32;20614;-67
2022/01/13 00:47:44;;;;;;;8.02;4.57;;;-5.10;99.90;;;;;;4363565;32;20101;-66
2022/01/13 00:50:10;;;;;;;8.85;4.70;;;-5.20;99.90;;;;;;4364230;32;20080;-66
2022/01/13 00:52:37;;;;;;;9.40;5.12;;;-5.20;99.90;;;;;;4388466;32;20136;-66
2022/01/13 00:55:08;;;;;;;8.13;5.00;;;-5.20;99.90;;;;;;4377715;32;20162;-65
2022/01/13 00:57:35;;;;;;;7.57;4.40;;;-5.20;99.90;;;;;;4376260;32;20087;-65
2022/01/13 01:00:03;;;;;;;7.60;4.68;;;-5.30;99.90;;;;;;4375892;32;20157;-66
2022/01/13 01:02:29;;;;;;;7.30;4.62;;;-5.30;99.90;;;;;;4363634;32;20089;-66
2022/01/13 01:04:55;;;;;;;7.82;4.43;;;-5.30;99.90;;;;;;4388463;32;20105;-66
2022/01/13 01:07:22;;;;;;;7.60;4.30;;;-5.20;99.90;;;;;;4375848;32;20165;-65
2022/01/13 01:09:50;;;;;;;7.18;4.05;;;-5.40;99.90;;;;;;4388201;32;20093;-65
2022/01/13 01:12:19;;;;;;;8.93;4.78;;;-5.20;99.90;;;;;;4375527;32;20081;-66
2022/01/13 01:14:52;;;;;;;8.93;5.32;;;-5.20;99.90;;;;;;4375759;32;20086;-66
2022/01/13 01:17:19;;;;;;;7.18;3.90;;;-5.20;99.90;;;;;;4375551;32;20452;-65
2022/01/13 01:19:49;;;;;;;9.48;4.90;;;-5.20;99.90;;;;;;4363132;32;20485;-65
2022/01/13 01:27:37;;;;;;;7.65;3.75;;;-5.20;99.90;;;;;;4376164;32;20067;-66
2022/01/13 01:30:12;;;;;;;10.75;5.15;;;-5.40;99.90;;;;;;4375356;32;20068;-66
2022/01/13 01:32:40;;;;;;;9.23;4.53;;;-5.40;99.90;;;;;;4363587;32;20081;-66
2022/01/13 01:35:15;;;;;;;7.72;4.35;;;-5.30;99.90;;;;;;4376586;32;20508;-66
2022/01/13 01:37:43;;;;;;;8.20;4.30;;;-5.40;99.90;;;;;;4364354;32;20085;-65
2022/01/13 01:40:13;;;;;;;8.52;4.40;;;-5.40;99.90;;;;;;4375499;32;20516;-64
2022/01/13 01:42:40;;;;;;;7.12;3.65;;;-5.50;99.90;;;;;;4362775;32;20144;-66
2022/01/13 01:45:09;;;;;;;8.93;4.62;;;-5.50;99.90;;;;;;4375308;32;20073;-65
2022/01/13 01:47:37;;;;;;;6.87;4.30;;;-5.60;99.90;;;;;;4375094;32;20070;-66
2022/01/13 01:50:17;;;;;;;8.80;4.40;;;-5.70;99.90;;;;;;4362440;32;20532;-65
2022/01/13 01:52:46;;;;;;;7.95;4.85;;;-5.60;99.90;;;;;;4376412;32;20515;-66
2022/01/13 01:55:14;;;;;;;8.43;4.15;;;-5.50;99.90;;;;;;4362981;32;20163;-65
2022/01/13 01:57:42;;;;;;;6.87;4.47;;;-5.50;99.90;;;;;;4375392;32;20102;-65
2022/01/13 02:00:13;;;;;;;6.95;4.62;;;-5.50;99.90;;;;;;4376585;32;20595;-66
2022/01/13 02:02:42;;;;;;;8.48;4.70;;;-5.50;99.90;;;;;;4362490;32;20205;-66
2022/01/13 02:05:09;;;;;;;8.10;4.95;;;-5.50;99.90;;;;;;4375203;32;20081;-66
2022/01/13 02:07:36;;;;;;;8.30;4.35;;;-5.40;99.90;;;;;;4375734;32;20063;-65
2022/01/13 02:10:04;;;;;;;7.80;4.47;;;-5.50;99.90;;;;;;4375781;32;20074;-66
2022/01/13 02:12:35;;;;;;;7.60;4.40;;;-5.50;99.90;;;;;;4362864;32;20082;-65
2022/01/13 02:17:34;;;;;;;9.55;4.65;;;-5.40;99.90;;;;;;4375000;32;20081;-66
2022/01/13 02:20:03;;;;;;;8.82;5.05;;;-5.30;99.90;;;;;;4375243;32;20081;-66
2022/01/13 02:22:30;;;;;;;9.45;4.15;;;-5.40;99.90;;;;;;4362462;32;20089;-65
2022/01/13 02:24:57;;;;;;;6.25;3.70;;;-5.50;99.90;;;;;;4362870;32;20176;-65
2022/01/13 02:27:23;;;;;;;6.78;3.97;;;-5.50;99.90;;;;;;4369260;32;20094;-65
2022/01/13 02:29:50;;;;;;;9.70;4.68;;;-5.50;99.90;;;;;;4378847;32;20137;-66
2022/01/13 02:32:17;;;;;;;8.88;4.15;;;-5.50;99.90;;;;;;4361844;32;20152;-67
2022/01/13 02:34:44;;;;;;;6.68;3.87;;;-5.50;99.90;;;;;;4381359;32;20074;-66
2022/01/13 02:37:11;;;;;;;6.50;3.08;;;-5.70;99.90;;;;;;4366005;32;20613;-65
2022/01/13 02:39:38;;;;;;;7.18;4.50;;;-5.70;99.90;;;;;;4374784;32;20540;-66
2022/01/13 02:42:12;;;;;;;7.95;4.20;;;-5.70;99.90;;;;;;4376167;32;20058;-67
2022/01/13 02:44:50;;;;;;;6.65;3.62;;;-5.60;99.90;;;;;;4375116;32;20074;-66
2022/01/13 02:47:34;;;;;;;8.57;4.07;;;-5.60;99.90;;;;;;4362116;32;20488;-66
2022/01/13 02:50:02;;;;;;;6.95;4.03;;;-5.60;99.90;;;;;;4374684;32;20100;-66
2022/01/13 02:52:28;;;;;;;9.85;4.22;;;-5.50;99.90;;;;;;4387360;32;20472;-65
2022/01/13 02:54:54;;;;;;;7.05;4.07;;;-5.50;99.90;;;;;;4375178;32;20520;-66
2022/01/13 02:57:21;;;;;;;7.70;4.53;;;-5.50;99.90;;;;;;4374696;32;20089;-65
2022/01/13 02:59:47;;;;;;;10.38;4.35;;;-5.60;99.90;;;;;;4375683;32;20085;-65
2022/01/13 03:02:14;;;;;;;7.87;3.80;;;-5.50;99.90;;;;;;4362671;32;20073;-66
2022/01/13 03:04:49;;;;;;;8.40;3.70;;;-5.60;99.90;;;;;;4377629;32;20070;-66
2022/01/13 03:07:16;;;;;;;7.30;3.70;;;-5.50;99.90;;;;;;4364822;32;20081;-66
2022/01/13 03:09:43;;;;;;;3.50;2.53;;;-5.60;99.90;;;;;;4377139;32;20073;-66
2022/01/13 03:12:10;;;;;;;6.40;2.83;;;-5.60;99.90;;;;;;4365083;32;20074;-66
2022/01/13 03:14:37;;;;;;;7.03;4.25;;;-5.60;99.90;;;;;;4378994;32;20096;-66
2022/01/13 03:17:03;;;;;;;6.75;3.95;;;-5.60;99.90;;;;;;4377368;32;20185;-66
2022/01/13 03:19:30;;;;;;;8.05;3.95;;;-5.60;99.90;;;;;;4364821;32;20605;-66
2022/01/13 03:21:57;;;;;;;2.78;1.42;;;-5.70;99.90;;;;;;4364422;32;20078;-66
2022/01/13 03:24:24;;;;;;;6.10;2.95;;;-5.60;99.90;;;;;;4365000;32;20094;-64
2022/01/13 03:26:51;;;;;;;6.20;3.62;;;-5.70;99.90;;;;;;4377447;32;20085;-64
2022/01/13 03:29:20;;;;;;;8.57;4.30;;;-5.70;99.90;;;;;;4377211;32;20500;-64
2022/01/13 03:31:47;;;;;;;0.80;0.62;;;-5.70;99.90;;;;;;4377151;32;20074;-66
2022/01/13 03:34:15;;;;;;;1.58;0.75;;;-5.80;99.90;;;;;;4364865;32;20433;-66
2022/01/13 03:36:43;;;;;;;4.62;2.75;;;-5.70;99.90;;;;;;4377621;32;20066;-65
2022/01/13 03:39:10;;;;;;;7.35;3.83;;;-5.60;99.90;;;;;;4377577;32;20070;-65
2022/01/13 03:41:38;;;;;;;6.68;3.80;;;-5.60;99.90;;;;;;4377062;32;20170;-66
2022/01/13 03:46:47;;;;;;;8.53;4.10;;;-5.70;99.90;;;;;;3857209;37;20070;-65
2022/01/13 03:49:14;;;;;;;6.68;3.62;;;-5.70;99.90;;;;;;4406400;32;20104;-66
2022/01/13 03:51:55;;;;;;;7.50;4.05;;;-5.80;99.90;;;;;;4405921;32;20074;-66
2022/01/13 03:54:35;;;;;;;8.80;4.72;;;-5.70;99.90;;;;;;4405472;32;20080;-64
2022/01/13 03:57:28;;;;;;;7.72;3.53;;;-5.70;99.90;;;;;;4418304;32;20054;-67
2022/01/13 04:01:03;;;;;;;7.10;3.97;;;-5.80;99.90;;;;;;4419828;32;20455;-66
2022/01/13 04:03:30;;;;;;;7.18;4.37;;;-5.70;99.90;;;;;;4405243;32;20073;-67
2022/01/13 04:06:12;;;;;;;8.50;4.28;;;-5.80;99.90;;;;;;4405240;32;20093;-66
2022/01/13 04:08:40;;;;;;;7.93;3.72;;;-5.80;99.90;;;;;;4413065;32;20088;-65
2022/01/13 04:11:06;;;;;;;6.25;3.20;;;-5.90;99.90;;;;;;4421643;32;20061;-65
2022/01/13 04:13:49;;;;;;;8.80;3.87;;;-5.80;99.90;;;;;;4418099;32;20099;-66
2022/01/13 04:16:20;;;;;;;7.22;3.75;;;-5.80;99.90;;;;;;4418877;32;20081;-66
2022/01/13 04:18:49;;;;;;;7.53;3.95;;;-5.70;99.90;;;;;;4419446;32;20073;-66
2022/01/13 04:21:18;;;;;;;7.32;4.18;;;-5.70;99.90;;;;;;4417825;32;20062;-66
2022/01/13 04:23:45;;;;;;;6.07;3.12;;;-5.70;99.90;;;;;;4417942;32;20448;-65
2022/01/13 04:26:17;;;;;;;5.32;3.00;;;-5.60;99.90;;;;;;4417902;32;20057;-65
2022/01/13 04:28:44;;;;;;;6.50;3.22;;;-5.70;99.90;;;;;;4405192;32;20115;-66
2022/01/13 04:31:10;;;;;;;5.18;2.92;;;-5.60;99.90;;;;;;4392149;32;20081;-66
2022/01/13 04:33:38;;;;;;;4.12;2.83;;;-5.50;99.90;;;;;;4397223;32;20086;-66
2022/01/13 04:36:08;;;;;;;4.78;2.55;;;-5.50;99.90;;;;;;4402197;32;20089;-65
2022/01/13 04:38:35;;;;;;;6.03;2.92;;;-5.60;99.90;;;;;;4390279;32;20073;-67
2022/01/13 04:41:04;;;;;;;6.80;2.90;;;-5.50;99.90;;;;;;4390056;32;20093;-66
2022/01/13 04:43:32;;;;;;;5.25;2.70;;;-5.60;99.90;;;;;;4377406;32;20077;-66
2022/01/13 04:45:59;;;;;;;6.50;3.58;;;-5.60;99.90;;;;;;4401759;32;20517;-65
2022/01/13 04:48:26;;;;;;;6.68;2.85;;;-5.60;99.90;;;;;;4389665;32;20209;-64
2022/01/13 04:50:52;;;;;;;3.53;2.33;;;-5.60;99.90;;;;;;4389859;32;20081;-65
2022/01/13 04:53:19;;;;;;;4.80;2.85;;;-5.60;99.90;;;;;;4377020;32;20078;-66
2022/01/13 04:55:57;;;;;;;2.78;1.77;;;-5.60;99.90;;;;;;4389842;32;20424;-65
2022/01/13 04:58:23;;;;;;;5.40;3.33;;;-5.60;99.90;;;;;;4384907;32;20092;-66
2022/01/13 05:00:50;;;;;;;4.43;2.97;;;-5.50;99.90;;;;;;4395335;32;20504;-67
2022/01/13 05:03:42;;;;;;;5.13;3.23;;;-5.60;99.90;;;;;;3857413;37;20444;-66
2022/01/13 05:06:09;;;;;;;8.00;4.28;;;-5.50;99.90;;;;;;4418883;32;20513;-65
2022/01/13 05:08:36;;;;;;;4.65;2.75;;;-5.60;99.90;;;;;;4418740;32;20100;-66
2022/01/13 05:11:02;;;;;;;6.20;3.37;;;-5.60;99.90;;;;;;4392998;32;20080;-65
2022/01/13 05:13:29;;;;;;;5.60;2.78;;;-5.50;99.90;;;;;;4418240;32;20511;-66
2022/01/13 05:15:55;;;;;;;6.93;3.30;;;-5.60;99.90;;;;;;4418635;32;20065;-66
2022/01/13 05:21:18;;;;;;;8.45;3.97;;;-5.50;99.90;;;;;;4419173;32;20073;-66
2022/01/13 05:23:45;;;;;;;5.53;3.25;;;-5.60;99.90;;;;;;4407040;32;20105;-66
2022/01/13 05:26:12;;;;;;;3.78;2.22;;;-5.60;99.90;;;;;;4419955;32;20074;-66
2022/01/13 05:28:40;;;;;;;6.75;3.75;;;-5.60;99.90;;;;;;4392630;32;20507;-66
2022/01/13 05:31:08;;;;;;;5.37;2.97;;;-5.50;99.90;;;;;;4405708;32;20088;-65
2022/01/13 05:33:34;;;;;;;6.30;3.20;;;-5.50;99.90;;;;;;4410775;32;20069;-67
2022/01/13 05:36:01;;;;;;;6.22;3.05;;;-5.50;99.90;;;;;;4402935;32;20078;-66
2022/01/13 05:38:28;;;;;;;7.55;3.45;;;-5.50;99.90;;;;;;4395016;32;20152;-68
2022/01/13 05:40:55;;;;;;;5.37;2.70;;;-5.40;99.90;;;;;;4372216;32;20085;-68
2022/01/13 05:43:21;;;;;;;3.47;2.08;;;-5.30;99.90;;;;;;4397893;32;20069;-67
2022/01/13 05:45:47;;;;;;;6.40;3.22;;;-5.30;99.90;;;;;;4396255;32;20170;-67
2022/01/13 05:48:14;;;;;;;4.62;3.12;;;-5.20;99.90;;;;;;4388315;32;20101;-64
2022/01/13 05:50:40;;;;;;;5.60;3.20;;;-5.20;99.90;;;;;;4402652;32;20084;-64
2022/01/13 05:53:07;;;;;;;4.53;3.05;;;-5.10;99.90;;;;;;4384791;32;20085;-66
2022/01/13 05:55:34;;;;;;;4.05;2.28;;;-5.10;99.90;;;;;;4386519;32;20165;-63
2022/01/13 05:58:01;;;;;;;4.97;2.92;;;-5.20;99.90;;;;;;4394657;32;20133;-65
2022/01/13 06:00:27;;;;;;;7.78;2.92;;;-5.10;99.90;;;;;;4391713;32;20074;-64
2022/01/13 06:02:54;;;;;;;5.22;3.12;;;-5.00;99.90;;;;;;4395061;32;20101;-65
2022/01/13 06:05:21;;;;;;;5.07;2.95;;;-5.10;99.90;;;;;;4373463;32;20066;-64
2022/01/13 06:07:48;;;;;;;5.55;3.42;;;-4.90;99.90;;;;;;4386226;32;20555;-63
2022/01/13 06:10:19;;;;;;;5.75;3.47;;;-4.80;99.90;;;;;;4386688;32;20440;-67
2022/01/13 06:12:51;;;;;;;5.75;3.00;;;-4.90;99.90;;;;;;4387526;32;20174;-63
2022/01/13 06:15:20;;;;;;;7.10;3.45;;;-4.80;99.90;;;;;;4381455;32;20128;-64
2022/01/13 06:17:50;;;;;;;6.60;3.25;;;-4.70;99.90;;;;;;4382673;32;20081;-64
2022/01/13 06:20:18;;;;;;;4.53;2.95;;;-4.80;99.90;;;;;;4387096;32;20139;-65
2022/01/13 06:22:47;;;;;;;8.10;3.70;;;-4.80;99.90;;;;;;4369304;32;20162;-69
2022/01/13 06:25:14;;;;;;;6.57;3.05;;;-4.80;99.90;;;;;;4371783;32;20094;-66
2022/01/13 06:27:41;;;;;;;4.62;2.87;;;-4.80;99.90;;;;;;4391590;32;20069;-65
2022/01/13 06:30:15;;;;;;;5.55;3.28;;;-4.80;99.90;;;;;;4368631;32;20460;-68
2022/01/13 06:32:43;;;;;;;4.30;2.53;;;-4.80;99.90;;;;;;4381889;32;20449;-64
2022/01/13 06:35:11;;;;;;;6.00;3.08;;;-4.70;99.90;;;;;;4373049;32;20100;-66
2022/01/13 06:37:37;;;;;;;6.07;3.25;;;-4.70;99.90;;;;;;4399566;32;20169;-65
2022/01/13 06:40:05;;;;;;;6.37;3.10;;;-4.70;99.90;;;;;;4361759;32;20079;-64
2022/01/13 06:42:32;;;;;;;5.78;3.28;;;-4.80;99.90;;;;;;4390129;32;20086;-64
2022/01/13 06:44:58;;;;;;;4.53;2.95;;;-4.70;99.90;;;;;;4382597;32;20075;-64
2022/01/13 06:47:25;;;;;;;6.72;3.25;;;-4.80;99.90;;;;;;4389080;32;20081;-63
2022/01/13 06:49:51;;;;;;;6.15;3.33;;;-4.70;99.90;;;;;;4380071;32;20135;-63
2022/01/13 06:52:18;;;;;;;4.53;2.67;;;-4.70;99.90;;;;;;4390914;32;20493;-67
2022/01/13 06:54:45;;;;;;;6.20;3.22;;;-4.80;99.90;;;;;;4359052;32;20065;-63
2022/01/13 06:57:11;;;;;;;4.97;2.80;;;-4.60;99.90;;;;;;4387546;32;20054;-63
2022/01/13 06:59:37;;;;;;;4.25;2.65;;;-4.70;99.90;;;;;;4383640;32;20078;-63
2022/01/13 07:02:04;;;;;;;6.53;3.55;;;-4.70;99.90;;;;;;4366018;32;20093;-66
2022/01/13 07:04:30;;;;;;;5.03;2.92;;;-4.60;99.90;;;;;;4360701;32;20496;-65
2022/01/13 07:06:57;;;;;;;5.70;2.80;;;-4.60;99.90;;;;;;4376879;32;20629;-64
2022/01/13 07:09:24;;;;;;;4.75;3.10;;;-4.70;99.90;;;;;;4371509;32;20259;-66
2022/01/13 07:11:51;;;;;;;5.50;3.10;;;-4.50;99.90;;;;;;4378422;32;20169;-66
2022/01/13 07:14:17;;;;;;;7.12;3.20;;;-4.50;99.90;;;;;;4381236;32;20090;-64
2022/01/13 07:16:45;;;;;;;6.37;3.30;;;-4.50;99.90;;;;;;4382743;32;20091;-65
2022/01/13 07:19:13;;;;;;;7.05;3.25;;;-4.50;99.90;;;;;;4374917;32;20073;-67
2022/01/13 07:21:42;;;;;;;5.57;2.72;;;-4.40;99.90;;;;;;4389447;32;20089;-66
2022/01/13 07:24:09;;;;;;;5.78;3.20;;;-4.60;99.90;;;;;;4383193;32;20078;-66
2022/01/13 07:26:36;;;;;;;5.78;2.90;;;-4.50;99.90;;;;;;4382485;32;20093;-64
2022/01/13 07:29:04;;;;;;;5.70;2.97;;;-4.30;99.90;;;;;;4387523;32;20105;-67
2022/01/13 07:31:31;;;;;;;6.32;3.30;;;-4.50;99.90;;;;;;4371594;32;20101;-66
2022/01/13 07:33:57;;;;;;;6.10;2.97;;;-4.60;99.90;;;;;;4357676;32;20501;-65
2022/01/13 07:36:24;;;;;;;5.18;2.85;;;-4.60;99.90;;;;;;4393485;32;20069;-66
2022/01/13 07:38:50;;;;;;;5.65;2.97;;;-4.60;99.90;;;;;;4389665;32;20514;-67
2022/01/13 07:41:17;;;;;;;4.32;3.17;;;-4.50;99.90;;;;;;4389916;32;20074;-66
2022/01/13 07:43:48;;;;;;;5.25;3.30;;;-4.40;99.90;;;;;;4362672;32;20166;-67
2022/01/13 07:46:15;;;;;;;5.47;3.12;;;-4.60;99.90;;;;;;4390923;32;20084;-65
2022/01/13 07:48:41;;;;;;;6.07;3.15;;;-4.50;99.90;;;;;;4382387;32;20085;-64
2022/01/13 07:51:07;;;;;;;5.05;2.97;;;-4.50;99.90;;;;;;4384694;32;20487;-66
2022/01/13 07:53:34;;;;;;;5.18;3.28;;;-4.70;99.90;;;;;;4381748;32;20069;-65
2022/01/13 07:56:00;;;;;;;5.78;3.37;;;-4.60;99.90;;;;;;4384731;32;20085;-65
2022/01/13 07:58:27;;;;;;;6.45;3.03;;;-4.60;99.90;;;;;;4387276;32;20508;-66
2022/01/13 08:00:53;;;;;;;6.47;3.62;;;-4.50;99.90;;;;;;4382517;32;20452;-66
2022/01/13 08:03:19;;;;;;;5.65;3.37;;;-4.30;99.90;;;;;;4385200;32;20074;-66
2022/01/13 08:05:46;;;;;;;7.60;3.60;;;-4.50;99.90;;;;;;4389135;32;20457;-66
2022/01/13 08:08:12;;;;;;;7.50;3.45;;;-4.50;99.90;;;;;;4388256;32;20081;-66
2022/01/13 08:10:39;;;;;;;5.78;3.30;;;-4.60;99.90;;;;;;4370063;32;20581;-66
2022/01/13 08:13:05;;;;;;;5.53;3.17;;;-4.40;99.90;;;;;;4382246;32;20182;-67
2022/01/13 08:15:34;;;;;;;4.62;3.00;;;-4.40;99.90;;;;;;4376157;32;20070;-67
2022/01/13 08:20:46;;;;;;;4.97;2.83;;;-4.70;99.90;;;;;;4384667;32;20058;-64
2022/01/13 08:23:13;;;;;;;4.65;2.80;;;-4.90;99.90;;;;;;4389837;32;20081;-66
2022/01/13 08:25:39;;;;;;;4.93;3.12;;;-4.70;99.90;;;;;;4384067;32;20456;-66
2022/01/13 08:28:06;;;;;;;4.05;2.67;;;-4.80;99.90;;;;;;4371519;32;20065;-65
2022/01/13 08:30:33;;;;;;;6.45;2.90;;;-4.70;99.90;;;;;;4380055;32;20092;-62
2022/01/13 08:33:00;;;;;;;3.87;2.55;;;-4.90;99.90;;;;;;4377644;32;20528;-64
2022/01/13 08:35:26;;;;;;;6.90;3.20;;;-4.60;99.90;;;;;;4384547;32;20110;-64
2022/01/13 08:37:53;;;;;;;5.20;3.05;;;-4.70;99.90;;;;;;4372212;32;20077;-64
2022/01/13 08:40:20;;;;;;;5.97;3.08;;;-4.70;99.90;;;;;;4369309;32;20120;-65
2022/01/13 08:42:46;;;;;;;5.75;3.45;;;-4.50;99.90;;;;;;4354629;32;20062;-65
2022/01/13 08:45:13;;;;;;;5.72;3.42;;;-4.80;99.90;;;;;;4379595;32;20070;-65
2022/01/13 08:47:40;;;;;;;6.90;2.90;;;-4.80;99.90;;;;;;4379613;32;20142;-65
2022/01/13 08:50:08;;;;;;;5.65;3.20;;;-5.00;99.90;;;;;;4389625;32;20464;-64
2022/01/13 08:52:38;;;;;;;5.15;2.60;;;-4.90;99.90;;;;;;4382994;32;20105;-63
2022/01/13 08:55:07;;;;;;;5.10;2.78;;;-4.90;99.90;;;;;;4381298;32;20094;-64
2022/01/13 08:57:35;;;;;;;3.83;2.17;;;-5.00;99.90;;;;;;4384325;32;20069;-64
2022/01/13 09:00:05;;;;;;;5.68;3.33;;;-5.00;99.90;;;;;;4375211;32;20093;-66
2022/01/13 09:02:33;;;;;;;2.80;2.08;;;-4.80;99.90;;;;;;4385302;32;20094;-63
2022/01/13 09:05:02;;;;;;;4.62;2.65;;;-4.80;99.90;;;;;;4372003;32;20061;-65
2022/01/13 09:07:29;;;;;;;2.17;1.62;;;-4.80;99.90;;;;;;4371866;32;20116;-64
2022/01/13 09:09:57;;;;;;;4.30;2.37;;;-4.90;99.90;;;;;;4356179;32;20170;-63
2022/01/13 09:12:23;;;;;;;7.03;2.70;;;-4.90;99.90;;;;;;4381497;32;20074;-67
2022/01/13 09:14:51;;;;;;;4.18;2.62;;;-4.80;99.90;;;;;;4370704;32;20071;-64
2022/01/13 09:17:23;;;;;;;3.97;2.42;;;-4.80;99.90;;;;;;4382439;32;20105;-66
2022/01/13 09:19:51;;;;;;;4.50;2.70;;;-4.70;99.90;;;;;;4377741;32;20074;-67
2022/01/13 09:22:19;;;;;;;4.40;2.40;;;-4.80;99.90;;;;;;4395268;32;20065;-66
2022/01/13 09:24:46;;;;;;;3.20;2.00;;;-4.70;99.90;;;;;;4383042;32;20568;-65
2022/01/13 09:27:12;;;;;;;4.40;2.50;;;-5.00;99.90;;;;;;4371410;32;20089;-66
2022/01/13 09:29:39;;;;;;;4.95;2.92;;;-4.80;99.90;;;;;;4365172;32;20073;-65
2022/01/13 09:32:06;;;;;;;5.55;3.10;;;-4.90;99.90;;;;;;4382895;32;20093;-64
2022/01/13 09:34:32;;;;;;;6.55;2.80;;;-4.90;99.90;;;;;;4375269;32;20098;-69
2022/01/13 09:36:59;;;;;;;7.50;3.65;;;-4.70;99.90;;;;;;4359192;32;20105;-66
2022/01/13 09:39:25;;;;;;;4.30;2.55;;;-4.70;99.90;;;;;;4376802;32;20081;-65
2022/01/13 09:41:52;;;;;;;4.65;3.05;;;-4.90;99.90;;;;;;4383454;32;20097;-65
2022/01/13 09:44:19;;;;;;;5.25;3.20;;;-4.90;99.90;;;;;;4364248;32;20074;-64
2022/01/13 09:46:47;;;;;;;4.82;2.92;;;-4.70;99.90;;;;;;4374849;32;20078;-64
2022/01/13 09:49:14;;;;;;;3.70;2.60;;;-4.90;99.90;;;;;;4381423;32;20501;-66
2022/01/13 09:51:45;;;;;;;5.12;2.85;;;-4.80;99.90;;;;;;4375182;32;20098;-66
2022/01/13 09:54:13;;;;;;;6.15;3.05;;;-4.60;99.90;;;;;;4387776;32;20089;-65
2022/01/13 09:56:40;;;;;;;4.90;3.15;;;-4.60;99.90;;;;;;4379225;32;20150;-64
2022/01/13 09:59:07;;;;;;;4.15;2.70;;;-4.80;99.90;;;;;;4362450;32;20556;-65
2022/01/13 10:01:34;;;;;;;5.35;3.08;;;-4.60;99.90;;;;;;4384229;32;20162;-66
2022/01/13 10:04:01;;;;;;;4.68;3.17;;;-4.50;99.90;;;;;;4371543;32;20097;-63
2022/01/13 10:06:28;;;;;;;5.00;3.28;;;-4.60;99.90;;;;;;4378372;32;20506;-66
2022/01/13 10:08:58;;;;;;;3.83;2.45;;;-4.90;99.90;;;;;;4379907;32;20081;-75
2022/01/13 10:11:39;;;;;;;5.65;3.20;;;-4.60;99.90;;;;;;4390500;32;20085;-66
2022/01/13 10:17:10;;;;;;;5.30;3.05;;;-4.30;99.90;;;;;;4380304;32;20085;-66
2022/01/13 10:19:43;;;;;;;5.85;3.42;;;-4.50;99.90;;;;;;4376092;32;20067;-68
2022/01/13 10:22:30;;;;;;;5.78;3.20;;;-4.50;99.90;;;;;;4382624;32;20080;-67
2022/01/13 10:24:58;;;;;;;5.47;3.12;;;-4.30;99.90;;;;;;4385617;32;20082;-66
2022/01/13 10:27:34;;;;;;;5.07;3.28;;;-4.60;99.90;;;;;;4384174;32;20080;-68
2022/01/13 10:30:10;;;;;;;4.35;3.12;;;-4.80;99.90;;;;;;4381032;32;20081;-69
2022/01/13 10:32:39;;;;;;;5.18;3.30;;;-4.60;99.90;;;;;;4382979;32;20145;-68
2022/01/13 10:35:14;;;;;;;5.10;3.25;;;-4.60;99.90;;;;;;4383374;32;20788;-68
2022/01/13 10:37:42;;;;;;;6.03;3.42;;;-4.70;99.90;;;;;;4382643;32;20089;-68
2022/01/13 10:40:25;;;;;;;4.78;3.10;;;-4.60;99.90;;;;;;4373994;32;20154;-71
2022/01/13 10:43:06;;;;;;;5.28;2.92;;;-4.60;99.90;;;;;;4358924;32;20085;-68
2022/01/13 10:45:39;;;;;;;6.87;3.22;;;-4.80;99.90;;;;;;4380941;32;20074;-68
2022/01/13 10:48:24;;;;;;;6.12;3.62;;;-4.70;99.90;;;;;;4381920;32;20077;-66
2022/01/13 10:50:56;;;;;;;6.50;3.65;;;-4.50;99.90;;;;;;4372562;32;20078;-66
2022/01/13 10:53:30;;;;;;;5.95;3.78;;;-4.70;99.90;;;;;;4374375;32;20158;-67
2022/01/13 10:56:09;;;;;;;5.65;3.33;;;-4.80;99.90;;;;;;4377674;32;20062;-71
2022/01/13 10:58:49;;;;;;;6.30;3.47;;;-4.50;99.90;;;;;;4383591;32;20074;-70
2022/01/13 11:01:16;;;;;;;7.22;3.67;;;-4.70;99.90;;;;;;4387406;32;20475;-75
2022/01/13 11:03:45;;;;;;;5.45;3.10;;;-4.70;99.90;;;;;;4395124;32;20201;-74
2022/01/13 11:06:12;;;;;;;6.25;3.37;;;-4.70;99.90;;;;;;4383541;32;20145;-72
2022/01/13 11:08:43;;;;;;;6.00;3.20;;;-4.80;99.90;;;;;;4376958;32;20078;-70
2022/01/13 11:11:22;;;;;;;6.97;3.15;;;-4.50;99.90;;;;;;4383413;32;20181;-71
2022/01/13 11:14:14;;;;;;;6.20;3.08;;;-4.60;99.90;;;;;;4384715;32;20472;-72
2022/01/13 11:16:40;;;;;;;5.70;3.05;;;-4.60;99.90;;;;;;4379254;32;20511;-73
2022/01/13 11:19:08;;;;;;;6.18;3.10;;;-4.60;99.90;;;;;;4366451;32;20657;-71
2022/01/13 11:21:38;;;;;;;5.32;3.17;;;-4.50;99.90;;;;;;4379518;32;20068;-72
2022/01/13 11:24:05;;;;;;;5.62;2.90;;;-4.70;99.90;;;;;;4390561;32;20085;-70
2022/01/13 11:26:33;;;;;;;4.95;3.45;;;-4.50;99.90;;;;;;4377850;32;20129;-68
2022/01/13 11:29:00;;;;;;;7.75;3.62;;;-4.50;99.90;;;;;;4381724;32;20121;-71
2022/01/13 11:31:27;;;;;;;5.68;3.33;;;-4.30;99.90;;;;;;4379983;32;20498;-71
2022/01/13 11:33:54;;;;;;;6.82;3.60;;;-4.30;99.90;;;;;;4377523;32;20816;-64
2022/01/13 11:36:22;;;;;;;5.78;3.53;;;-4.30;99.90;;;;;;4371877;32;20065;-66
2022/01/13 11:39:00;;;;;;;6.07;3.80;;;-4.30;99.90;;;;;;4394525;32;20587;-72
2022/01/13 11:41:27;;;;;;;5.75;3.55;;;-4.30;99.90;;;;;;4379474;32;20097;-73
2022/01/13 11:44:14;;;;;;;6.37;3.08;;;-4.30;99.90;;;;;;4369594;32;20094;-66
2022/01/13 11:46:49;;;;;;;5.80;3.53;;;-4.40;99.90;;;;;;4369799;32;20188;-70
2022/01/13 11:49:33;;;;;;;7.87;3.20;;;-4.50;99.90;;;;;;4369271;32;20572;-64
2022/01/13 11:52:12;;;;;;;5.12;3.15;;;-4.50;99.90;;;;;;4375732;32;20085;-68
2022/01/13 11:54:39;;;;;;;7.03;3.62;;;-4.50;99.90;;;;;;4385989;32;20741;-64
2022/01/13 11:57:16;;;;;;;6.40;3.30;;;-4.50;99.90;;;;;;4380105;32;20070;-70
2022/01/13 11:59:58;;;;;;;5.43;3.25;;;-4.40;99.90;;;;;;4381391;32;20065;-64
2022/01/13 12:02:32;;;;;;;6.55;3.30;;;-4.20;99.90;;;;;;4378754;32;20077;-66
2022/01/13 12:05:17;;;;;;;5.35;3.03;;;-4.30;99.90;;;;;;4372618;32;20085;-65
2022/01/13 12:07:56;;;;;;;6.57;3.78;;;-4.30;99.90;;;;;;4395673;32;20096;-69
2022/01/13 12:10:34;;;;;;;7.22;3.70;;;-4.50;99.90;;;;;;4383085;32;20080;-69
2022/01/13 12:13:35;;;;;;;4.78;2.80;;;-4.50;99.90;;;;;;4370891;32;20150;-72
2022/01/13 12:16:04;;;;;;;5.85;2.80;;;-4.70;99.90;;;;;;4380540;32;20078;-72
2022/01/13 12:18:49;;;;;;;8.00;3.95;;;-4.80;99.90;;;;;;4371688;32;20500;-64
2022/01/13 12:21:36;;;;;;;6.37;3.60;;;-4.80;99.90;;;;;;4392756;32;20205;-68
2022/01/13 12:24:05;;;;;;;6.03;3.30;;;-4.70;99.90;;;;;;4387554;32;20062;-70
2022/01/13 12:26:40;;;;;;;6.37;3.33;;;-4.70;99.90;;;;;;4385012;32;20232;-71
2022/01/13 12:29:11;;;;;;;4.53;2.33;;;-4.70;99.90;;;;;;4377868;32;20080;-66
2022/01/13 12:32:01;;;;;;;3.95;2.12;;;-4.70;99.90;;;;;;4371815;32;20085;-69
2022/01/13 12:34:33;;;;;;;5.20;2.80;;;-4.80;99.90;;;;;;4385181;32;20059;-67
2022/01/13 12:37:13;;;;;;;5.28;2.95;;;-4.80;99.90;;;;;;4399309;32;20094;-67
2022/01/13 12:39:57;;;;;;;5.15;3.25;;;-4.80;99.90;;;;;;4390816;32;20105;-70
2022/01/13 12:42:41;;;;;;;7.80;3.00;;;-4.90;99.90;;;;;;4368566;32;20185;-66
2022/01/13 12:45:28;;;;;;;6.20;2.95;;;-4.80;99.90;;;;;;4378952;32;20338;-73
2022/01/13 12:48:02;;;;;;;;;;;-4.80;99.90;;;;;;4381985;32;20152;-74
2022/01/13 12:50:43;;;;;;;6.72;3.10;;;-4.70;99.90;;;;;;4372951;32;20368;-72
2022/01/13 12:53:15;;;;;;;6.45;3.20;;;-4.60;99.90;;;;;;4373323;32;20140;-73
2022/01/13 12:56:05;;;;;;;5.53;2.95;;;-5.00;99.90;;;;;;4399438;32;20089;-72
2022/01/13 12:58:34;;;;;;;6.20;3.40;;;-5.00;99.90;;;;;;4389503;32;20078;-72
2022/01/13 13:01:11;;;;;;;5.57;3.10;;;-5.10;99.90;;;;;;4396549;32;20191;-72
2022/01/13 13:03:39;;;;;;;6.07;3.70;;;-5.00;99.90;;;;;;4361498;32;20547;-70
2022/01/13 13:06:16;;;;;;;5.43;3.08;;;-5.10;99.90;;;;;;4369743;32;20129;-65
2022/01/13 13:08:48;;;;;;;6.12;3.12;;;-5.20;99.90;;;;;;4384926;32;20070;-68
2022/01/13 13:11:15;;;;;;;6.55;3.60;;;-5.20;99.90;;;;;;4380898;32;20171;-68
2022/01/13 13:13:50;;;;;;;7.28;3.40;;;-5.20;99.90;;;;;;4354787;32;20113;-67
2022/01/13 13:16:17;;;;;;;5.10;3.17;;;-5.20;99.90;;;;;;4366083;32;20532;-69
2022/01/13 13:18:44;;;;;;;6.07;3.47;;;-5.20;99.90;;;;;;4368848;32;20088;-67
2022/01/13 13:21:12;;;;;;;6.07;3.20;;;-5.10;99.90;;;;;;4371087;32;20256;-64
2022/01/13 13:23:42;;;;;;;6.35;3.33;;;-5.10;99.90;;;;;;4384440;32;20101;-63
2022/01/13 13:26:18;;;;;;;4.78;3.10;;;-5.20;99.90;;;;;;4374924;32;20058;-63